Time;durP1;ratioP1;P1;durP2;ratioP2;P2;SDS_P1;SDS_P2;PMS_P1;PMS_P2;Temp;Humidity;BMP_temperature;BMP_pressure;BME280_temperature;BME280_humidity;BME280_pressure;Samples;Min_cycle;Max_cycle;Signal;HPM_P1;HPM_P2
2023/03/06 00:00:48;;;;;;;;;;;;;;;-142.75;100.00;77731.88;4948617;29;20394;-67
2023/03/06 00:03:13;;;;;;;;;;;;;;;-142.75;100.00;77735.81;4947745;28;19965;-67
2023/03/06 00:05:39;;;;;;;;;;;;;;;-142.75;100.00;77737.78;4949117;29;19957;-67
2023/03/06 00:08:05;;;;;;;;;;;;;;;-142.75;100.00;77714.13;4953075;28;20005;-68
2023/03/06 00:10:30;;;;;;;;;;;;;;;-142.75;100.00;77720.03;4948140;29;19915;-66
2023/03/06 00:12:58;;;;;;;;;;;;;;;-142.75;100.00;77723.97;4934792;29;19921;-67
2023/03/06 00:15:24;;;;;;;;;;;;;;;-142.75;100.00;77716.09;4933631;29;19921;-67
2023/03/06 00:17:50;;;;;;;;;;;;;;;-142.75;100.00;77700.34;4933694;29;19929;-67
2023/03/06 00:20:15;;;;;;;;;;;;;;;-142.75;100.00;77704.28;4934740;29;20299;-68
2023/03/06 00:22:41;;;;;;;;;;;;;;;-142.75;100.00;77708.22;4934957;29;19926;-66
2023/03/06 00:25:07;;;;;;;;;;;;;;;-142.75;100.00;77704.28;4934778;29;19921;-67
2023/03/06 00:27:32;;;;;;;;;;;;;;;-142.75;100.00;77696.41;4933463;28;20320;-67
2023/03/06 00:29:58;;;;;;;;;;;;;;;-142.75;100.00;77706.25;4937583;29;19922;-67
2023/03/06 00:32:24;;;;;;;;;;;;;;;-142.75;100.00;77700.34;4936314;29;19914;-67
2023/03/06 00:34:49;;;;;;;;;;;;;;;-142.75;100.00;77700.34;4953772;29;19935;-66
2023/03/06 00:37:15;;;;;;;;;;;;;;;-142.75;100.00;77700.34;4939579;29;20403;-66
2023/03/06 00:39:40;;;;;;;;;;;;;;;-142.75;100.00;77720.03;4947813;29;19945;-67
2023/03/06 00:42:05;;;;;;;;;;;;;;;-142.75;100.00;77723.97;4935495;29;20397;-66
2023/03/06 00:44:30;;;;;;;;;;;;;;;-142.75;100.00;77723.97;4934372;29;19927;-67
2023/03/06 00:46:56;;;;;;;;;;;;;;;-142.75;100.00;77731.88;4933924;29;20364;-66
2023/03/06 00:49:21;;;;;;;;;;;;;;;-142.75;100.00;77733.84;4953405;29;19918;-67
2023/03/06 00:51:46;;;;;;;;;;;;;;;-142.75;100.00;77741.72;4953107;28;19918;-63
2023/03/06 00:54:11;;;;;;;;;;;;;;;-142.75;100.00;77735.81;4953585;29;20000;-65
2023/03/06 00:56:37;;;;;;;;;;;;;;;-142.75;100.00;77739.75;4953321;29;19921;-66
2023/03/06 00:59:02;;;;;;;;;;;;;;;-142.75;100.00;77763.38;4953269;29;19950;-66
2023/03/06 01:01:28;;;;;;;;;;;;;;;-142.75;100.00;77757.47;4932758;29;20089;-68
2023/03/06 01:03:53;;;;;;;;;;;;;;;-142.75;100.00;77769.28;4934287;29;19915;-66
2023/03/06 01:06:18;;;;;;;;;;;;;;;-142.75;100.00;77751.56;4934207;29;20632;-66
2023/03/06 01:08:44;;;;;;;;;;;;;;;-142.75;100.00;77751.56;4953061;29;20038;-68
2023/03/06 01:11:09;;;;;;;;;;;;;;;-142.75;100.00;77743.69;4952540;28;19941;-66
2023/03/06 01:13:34;;;;;;;;;;;;;;;-142.75;100.00;77731.88;4952928;28;19962;-67
2023/03/06 01:16:06;;;;;;;;;;;;;;;-142.75;100.00;77731.88;4953296;29;19952;-66
2023/03/06 01:18:31;;;;;;;;;;;;;;;-142.75;100.00;77720.03;4952492;29;20459;-67
2023/03/06 01:20:57;;;;;;;;;;;;;;;-142.75;100.00;77725.97;4941610;29;20005;-67
2023/03/06 01:23:22;;;;;;;;;;;;;;;-142.75;100.00;77714.13;4953071;28;20351;-66
2023/03/06 01:25:47;;;;;;;;;;;;;;;-142.75;100.00;77708.22;4935869;29;19993;-66
2023/03/06 01:28:12;;;;;;;;;;;;;;;-142.75;100.00;77727.94;4952810;29;20399;-66
2023/03/06 01:30:38;;;;;;;;;;;;;;;-142.75;100.00;77727.94;4952733;29;19918;-67
2023/03/06 01:33:03;;;;;;;;;;;;;;;-142.75;100.00;77739.75;4935454;29;19969;-68
2023/03/06 01:35:28;;;;;;;;;;;;;;;-142.75;100.00;77712.16;4953042;29;19914;-67
2023/03/06 01:37:53;;;;;;;;;;;;;;;-142.75;100.00;77712.16;4952957;29;19922;-66
2023/03/06 01:40:19;;;;;;;;;;;;;;;-142.75;100.00;77714.13;4952629;29;19918;-67
2023/03/06 01:42:44;;;;;;;;;;;;;;;-142.75;100.00;77720.03;4952413;28;19949;-66
2023/03/06 01:45:12;;;;;;;;;;;;;;;-142.75;100.00;77718.06;4952839;29;20380;-66
2023/03/06 01:47:37;;;;;;;;;;;;;;;-142.75;100.00;77722.00;4952857;29;20034;-66
2023/03/06 01:50:03;;;;;;;;;;;;;;;-142.75;100.00;77722.00;4935744;29;20395;-66
2023/03/06 01:52:31;;;;;;;;;;;;;;;-142.75;100.00;77733.84;4949938;28;19915;-66
2023/03/06 01:55:01;;;;;;;;;;;;;;;-142.75;100.00;77731.88;4952610;29;19925;-66
2023/03/06 01:57:29;;;;;;;;;;;;;;;-142.75;100.00;77735.81;4952403;29;19953;-68
2023/03/06 02:00:01;;;;;;;;;;;;;;;-142.75;100.00;77731.88;4939149;29;19918;-66
2023/03/06 02:02:26;;;;;;;;;;;;;;;-142.75;100.00;77751.56;4948258;28;19914;-67
2023/03/06 02:04:51;;;;;;;;;;;;;;;-142.75;100.00;77739.75;4952745;29;19915;-66
2023/03/06 02:07:17;;;;;;;;;;;;;;;-142.75;100.00;77729.88;4952624;29;19918;-68
2023/03/06 02:09:43;;;;;;;;;;;;;;;-142.75;100.00;77723.97;4935298;29;19914;-66
2023/03/06 02:12:10;;;;;;;;;;;;;;;-142.75;100.00;77720.03;4951099;28;19929;-66
2023/03/06 02:14:36;;;;;;;;;;;;;;;-142.75;100.00;77723.97;4952488;29;19986;-67
2023/03/06 02:17:01;;;;;;;;;;;;;;;-142.75;100.00;77727.94;4935090;29;20029;-66
2023/03/06 02:19:29;;;;;;;;;;;;;;;-142.75;100.00;77733.84;4952114;29;19969;-66
2023/03/06 02:21:55;;;;;;;;;;;;;;;-142.75;100.00;77737.78;4953235;28;19914;-66
2023/03/06 02:24:29;;;;;;;;;;;;;;;-142.75;100.00;77735.81;4935488;29;19941;-67
2023/03/06 02:26:55;;;;;;;;;;;;;;;-142.75;100.00;77731.88;4936952;29;20002;-66
2023/03/06 02:29:22;;;;;;;;;;;;;;;-142.75;100.00;77727.94;4936914;29;20352;-66
2023/03/06 02:31:48;;;;;;;;;;;;;;;-142.75;100.00;77720.03;4944802;28;20376;-67
2023/03/06 02:34:13;;;;;;;;;;;;;;;-142.75;100.00;77714.13;4949994;29;19969;-66
2023/03/06 02:36:41;;;;;;;;;;;;;;;-142.75;100.00;77716.09;4955416;29;19937;-66
2023/03/06 02:39:07;;;;;;;;;;;;;;;-142.75;100.00;77716.09;4942788;29;19925;-67
2023/03/06 02:41:32;;;;;;;;;;;;;;;-142.75;100.00;77718.06;4948640;29;19914;-66
2023/03/06 02:43:57;;;;;;;;;;;;;;;-142.75;100.00;77704.28;4938525;29;19914;-66
2023/03/06 02:46:22;;;;;;;;;;;;;;;-142.75;100.00;77696.41;4951492;28;19926;-66
2023/03/06 02:48:48;;;;;;;;;;;;;;;-142.75;100.00;77696.41;4936521;29;19942;-66
2023/03/06 02:51:13;;;;;;;;;;;;;;;-142.75;100.00;77680.66;4936242;29;19970;-65
2023/03/06 02:53:38;;;;;;;;;;;;;;;-142.75;100.00;77684.59;4951098;28;19925;-66
2023/03/06 02:56:03;;;;;;;;;;;;;;;-142.75;100.00;77676.72;4951085;29;19915;-68
2023/03/06 02:58:29;;;;;;;;;;;;;;;-142.75;100.00;77680.66;4936383;29;20519;-67
2023/03/06 03:00:54;;;;;;;;;;;;;;;-142.75;100.00;77662.94;4935835;29;19922;-67
2023/03/06 03:03:19;;;;;;;;;;;;;;;-142.75;100.00;77660.97;4950925;28;19918;-66
2023/03/06 03:05:45;;;;;;;;;;;;;;;-142.75;100.00;77660.97;4934779;29;19957;-66
2023/03/06 03:08:10;;;;;;;;;;;;;;;-142.75;100.00;77651.13;4936106;29;19915;-66
2023/03/06 03:10:35;;;;;;;;;;;;;;;-142.75;100.00;77653.09;4950541;29;19918;-67
2023/03/06 03:13:00;;;;;;;;;;;;;;;-142.75;100.00;77662.94;4936108;29;20404;-67
2023/03/06 03:15:26;;;;;;;;;;;;;;;-142.75;100.00;77645.22;4936073;29;19923;-66
2023/03/06 03:17:51;;;;;;;;;;;;;;;-142.75;100.00;77649.16;4935860;29;19937;-67
2023/03/06 03:20:18;;;;;;;;;;;;;;;-142.75;100.00;77643.25;4935826;29;19919;-66
2023/03/06 03:22:50;;;;;;;;;;;;;;;-142.75;100.00;77631.44;4935654;29;19915;-67
2023/03/06 03:25:16;;;;;;;;;;;;;;;-142.75;100.00;77627.50;4936006;29;19921;-66
2023/03/06 03:27:41;;;;;;;;;;;;;;;-142.75;100.00;77619.63;4954555;29;19922;-67
2023/03/06 03:30:07;;;;;;;;;;;;;;;-142.75;100.00;77623.56;4953111;28;19974;-66
2023/03/06 03:32:32;;;;;;;;;;;;;;;-142.75;100.00;77617.66;4934223;28;19915;-67
2023/03/06 03:34:57;;;;;;;;;;;;;;;-142.75;100.00;77621.59;4949910;28;20357;-66
2023/03/06 03:37:23;;;;;;;;;;;;;;;-142.75;100.00;77617.66;4935500;29;19957;-66
2023/03/06 03:39:48;;;;;;;;;;;;;;;-142.75;100.00;77627.50;4935586;29;19966;-66
2023/03/06 03:42:13;;;;;;;;;;;;;;;-142.75;100.00;77611.75;4938852;29;19914;-67
2023/03/06 03:44:38;;;;;;;;;;;;;;;-142.75;100.00;77601.91;4938714;29;20300;-68
2023/03/06 03:47:04;;;;;;;;;;;;;;;-142.75;100.00;77586.16;4935565;29;19961;-67
2023/03/06 03:49:29;;;;;;;;;;;;;;;-142.75;100.00;77586.16;4935270;29;20375;-67
2023/03/06 03:51:54;;;;;;;;;;;;;;;-142.75;100.00;77588.13;4948407;28;19914;-66
2023/03/06 03:54:20;;;;;;;;;;;;;;;-142.75;100.00;77588.13;4950115;29;19969;-66
2023/03/06 03:56:45;;;;;;;;;;;;;;;-142.75;100.00;77582.22;4953395;29;19969;-68
2023/03/06 03:59:10;;;;;;;;;;;;;;;-142.75;100.00;77578.28;4944488;29;19918;-67
2023/03/06 04:01:36;;;;;;;;;;;;;;;-142.75;100.00;77570.41;4935237;29;19922;-67
2023/03/06 04:04:01;;;;;;;;;;;;;;;-142.75;100.00;77586.16;4935036;28;19926;-66
2023/03/06 04:06:26;;;;;;;;;;;;;;;-142.75;100.00;77582.22;4934854;29;19920;-67
2023/03/06 04:08:52;;;;;;;;;;;;;;;-142.75;100.00;77570.41;4949423;29;20273;-68
2023/03/06 04:11:17;;;;;;;;;;;;;;;-142.75;100.00;77560.56;4934695;29;19970;-66
2023/03/06 04:13:42;;;;;;;;;;;;;;;-142.75;100.00;77548.75;4949566;28;19914;-67
2023/03/06 04:16:07;;;;;;;;;;;;;;;-142.75;100.00;77556.63;4935092;29;19915;-66
2023/03/06 04:18:32;;;;;;;;;;;;;;;-142.75;100.00;77548.75;4963530;23;19938;-67
2023/03/06 04:20:58;;;;;;;;;;;;;;;-142.75;100.00;77540.88;4966724;28;19918;-67
2023/03/06 04:23:23;;;;;;;;;;;;;;;-142.75;100.00;77538.91;4952236;29;19914;-67
2023/03/06 04:25:48;;;;;;;;;;;;;;;-142.75;100.00;77542.84;4968874;28;20300;-66
2023/03/06 04:28:14;;;;;;;;;;;;;;;-142.75;100.00;77531.03;4954052;29;20284;-67
2023/03/06 04:30:39;;;;;;;;;;;;;;;-142.75;100.00;77533.00;4953805;29;19915;-66
2023/03/06 04:33:04;;;;;;;;;;;;;;;-142.75;100.00;77533.00;4953943;29;19915;-67
2023/03/06 04:35:29;;;;;;;;;;;;;;;-142.75;100.00;77523.16;4953957;28;19922;-67
2023/03/06 04:37:55;;;;;;;;;;;;;;;-142.75;100.00;77517.25;4953949;28;20139;-67
2023/03/06 04:40:27;;;;;;;;;;;;;;;-142.75;100.00;77515.28;4952306;29;19930;-67
2023/03/06 04:42:53;;;;;;;;;;;;;;;-142.75;100.00;77513.31;4953910;29;19915;-66
2023/03/06 04:45:18;;;;;;;;;;;;;;;-142.75;100.00;77503.47;4953110;28;19921;-67
2023/03/06 04:47:44;;;;;;;;;;;;;;;-142.75;100.00;77487.72;4953963;29;19914;-67
2023/03/06 04:50:09;;;;;;;;;;;;;;;-142.75;100.00;77479.84;4953601;28;19914;-67
2023/03/06 04:52:34;;;;;;;;;;;;;;;-142.75;100.00;77483.78;4953567;29;20000;-66
2023/03/06 04:55:00;;;;;;;;;;;;;;;-142.75;100.00;77483.78;4953781;29;19919;-67
2023/03/06 04:57:25;;;;;;;;;;;;;;;-142.75;100.00;77487.72;4953739;29;20291;-67
2023/03/06 04:59:50;;;;;;;;;;;;;;;-142.75;100.00;77475.91;4953581;28;20384;-67
2023/03/06 05:02:16;;;;;;;;;;;;;;;-142.75;100.00;77466.03;4953573;29;19914;-67
2023/03/06 05:04:41;;;;;;;;;;;;;;;-142.75;100.00;77468.03;4953735;28;20368;-67
2023/03/06 05:07:06;;;;;;;;;;;;;;;-142.75;100.00;77470.00;4952282;29;19914;-67
2023/03/06 05:09:32;;;;;;;;;;;;;;;-142.75;100.00;77462.13;4953178;28;20375;-66
2023/03/06 05:11:57;;;;;;;;;;;;;;;-142.75;100.00;77460.13;4953189;29;20292;-67
2023/03/06 05:14:22;;;;;;;;;;;;;;;-142.75;100.00;77473.94;4953330;29;19922;-67
2023/03/06 05:16:47;;;;;;;;;;;;;;;-142.75;100.00;77477.88;4953285;29;20406;-66
2023/03/06 05:19:13;;;;;;;;;;;;;;;-142.75;100.00;77468.03;4952707;28;19922;-66
2023/03/06 05:21:38;;;;;;;;;;;;;;;-142.75;100.00;77450.28;4953082;29;19973;-66
2023/03/06 05:24:03;;;;;;;;;;;;;;;-142.75;100.00;77444.38;4953001;29;19918;-66
2023/03/06 05:26:28;;;;;;;;;;;;;;;-142.75;100.00;77458.16;4953169;28;19914;-66
2023/03/06 05:28:54;;;;;;;;;;;;;;;-142.75;100.00;77448.34;4952930;28;19942;-67
2023/03/06 05:31:19;;;;;;;;;;;;;;;-142.75;100.00;77440.44;4952956;28;20395;-66
2023/03/06 05:33:44;;;;;;;;;;;;;;;-142.75;100.00;77428.63;4953094;29;19918;-67
2023/03/06 05:36:09;;;;;;;;;;;;;;;-142.75;100.00;77430.59;4952942;29;19914;-66
2023/03/06 05:38:35;;;;;;;;;;;;;;;-142.75;100.00;77416.81;4952864;28;19961;-66
2023/03/06 05:41:00;;;;;;;;;;;;;;;-142.75;100.00;77420.75;4952648;29;20063;-67
2023/03/06 05:43:25;;;;;;;;;;;;;;;-142.75;100.00;77410.91;4952964;29;19914;-67
2023/03/06 05:45:58;;;;;;;;;;;;;;;-142.75;100.00;77426.66;4953004;29;20364;-67
2023/03/06 05:48:23;;;;;;;;;;;;;;;-142.75;100.00;77432.56;4952653;28;19914;-66
2023/03/06 05:50:53;;;;;;;;;;;;;;;-142.75;100.00;77434.53;4952662;29;20415;-66
2023/03/06 05:53:18;;;;;;;;;;;;;;;-142.75;100.00;77432.56;4953038;29;19918;-66
2023/03/06 05:55:43;;;;;;;;;;;;;;;-142.75;100.00;77438.47;4952870;29;20376;-66
2023/03/06 05:58:09;;;;;;;;;;;;;;;-142.75;100.00;77426.66;4955673;28;19914;-66
2023/03/06 06:00:34;;;;;;;;;;;;;;;-142.75;100.00;77414.84;4956367;29;19925;-66
2023/03/06 06:03:01;;;;;;;;;;;;;;;-142.75;100.00;77416.81;4956498;29;19921;-67
2023/03/06 06:05:26;;;;;;;;;;;;;;;-142.75;100.00;77414.84;4956608;28;19921;-67
2023/03/06 06:07:51;;;;;;;;;;;;;;;-142.75;100.00;77424.69;4956398;28;20311;-66
2023/03/06 06:10:16;;;;;;;;;;;;;;;-142.75;100.00;77428.63;4956439;29;19921;-66
2023/03/06 06:12:41;;;;;;;;;;;;;;;-142.75;100.00;77397.13;4954848;29;20383;-66
2023/03/06 06:15:07;;;;;;;;;;;;;;;-142.75;100.00;77406.97;4956339;29;20345;-67
2023/03/06 06:17:32;;;;;;;;;;;;;;;-142.75;100.00;77410.91;4956343;28;19921;-67
2023/03/06 06:19:57;;;;;;;;;;;;;;;-142.75;100.00;77420.75;4955887;28;19925;-66
2023/03/06 06:22:23;;;;;;;;;;;;;;;-142.75;100.00;77426.66;4955896;29;19918;-66
2023/03/06 06:24:48;;;;;;;;;;;;;;;-142.75;100.00;77434.53;4956193;28;19962;-66
2023/03/06 06:27:13;;;;;;;;;;;;;;;-142.75;100.00;77418.78;4955957;29;19969;-66
2023/03/06 06:29:38;;;;;;;;;;;;;;;-142.75;100.00;77408.94;4955881;28;19945;-66
2023/03/06 06:32:03;;;;;;;;;;;;;;;-142.75;100.00;77406.97;4955899;29;20286;-66
2023/03/06 06:34:30;;;;;;;;;;;;;;;-142.75;100.00;77406.97;4956133;28;20394;-66
2023/03/06 06:36:55;;;;;;;;;;;;;;;-142.75;100.00;77399.09;4955976;28;19921;-66
2023/03/06 06:39:21;;;;;;;;;;;;;;;-142.75;100.00;77391.22;4955570;28;20005;-66
2023/03/06 06:41:49;;;;;;;;;;;;;;;-142.75;100.00;77406.97;4955764;29;19921;-66
2023/03/06 06:44:15;;;;;;;;;;;;;;;-142.75;100.00;77406.97;4955988;28;20387;-66
2023/03/06 06:46:42;;;;;;;;;;;;;;;-142.75;100.00;77422.72;4955610;29;19925;-66
2023/03/06 06:49:08;;;;;;;;;;;;;;;-142.75;100.00;77410.91;4955581;28;19914;-66
2023/03/06 06:51:33;;;;;;;;;;;;;;;-142.75;100.00;77426.66;4955603;28;19960;-67
2023/03/06 06:53:59;;;;;;;;;;;;;;;-142.75;100.00;77422.72;4955683;29;19914;-66
2023/03/06 06:56:24;;;;;;;;;;;;;;;-142.75;100.00;77395.16;4955540;29;19921;-67
2023/03/06 06:58:58;;;;;;;;;;;;;;;-142.75;100.00;77399.09;4955676;28;19914;-67
2023/03/06 07:01:23;;;;;;;;;;;;;;;-142.75;100.00;77403.03;4955414;28;20666;-67
2023/03/06 07:03:49;;;;;;;;;;;;;;;-142.75;100.00;77410.91;4955429;29;20042;-66
2023/03/06 07:06:14;;;;;;;;;;;;;;;-142.75;100.00;77405.00;4955398;29;20045;-67
2023/03/06 07:08:39;;;;;;;;;;;;;;;-142.75;100.00;77408.94;4954379;28;20408;-66
2023/03/06 07:11:06;;;;;;;;;;;;;;;-142.75;100.00;77393.19;4954208;29;20364;-66
2023/03/06 07:13:31;;;;;;;;;;;;;;;-142.75;100.00;77401.06;4955329;29;19918;-66
2023/03/06 07:15:57;;;;;;;;;;;;;;;-142.75;100.00;77391.22;4955342;29;19921;-67
2023/03/06 07:18:22;;;;;;;;;;;;;;;-142.75;100.00;77397.13;4953593;28;19921;-66
2023/03/06 07:20:47;;;;;;;;;;;;;;;-142.75;100.00;77397.13;4955116;29;19918;-67
2023/03/06 07:23:12;;;;;;;;;;;;;;;-142.75;100.00;77405.00;4955276;29;20383;-67
2023/03/06 07:25:38;;;;;;;;;;;;;;;-142.75;100.00;77420.75;4955099;29;19922;-66
2023/03/06 07:28:03;;;;;;;;;;;;;;;-142.75;100.00;77408.94;4954896;28;19914;-66
2023/03/06 07:30:28;;;;;;;;;;;;;;;-142.75;100.00;77405.00;4954915;29;20371;-66
2023/03/06 07:32:55;;;;;;;;;;;;;;;-142.75;100.00;77377.44;4954831;28;20374;-66
2023/03/06 07:35:20;;;;;;;;;;;;;;;-142.75;100.00;77377.44;4954896;29;19918;-66
2023/03/06 07:37:45;;;;;;;;;;;;;;;-142.75;100.00;77389.25;4954844;29;19920;-67
2023/03/06 07:40:11;;;;;;;;;;;;;;;-142.75;100.00;77377.44;4954529;28;19926;-66
2023/03/06 07:42:36;;;;;;;;;;;;;;;-142.75;100.00;77365.63;4953522;29;19914;-66
2023/03/06 07:45:03;;;;;;;;;;;;;;;-142.75;100.00;77338.06;4954845;29;20404;-67
2023/03/06 07:47:28;;;;;;;;;;;;;;;-142.75;100.00;77334.13;4954530;29;19922;-66
2023/03/06 07:49:55;;;;;;;;;;;;;;;-142.75;100.00;77334.13;4953240;28;19922;-66
2023/03/06 07:52:20;;;;;;;;;;;;;;;-142.75;100.00;77312.47;4954624;28;19914;-67
2023/03/06 07:54:46;;;;;;;;;;;;;;;-142.75;100.00;77316.41;4954606;28;19929;-66
2023/03/06 07:57:12;;;;;;;;;;;;;;;-142.75;100.00;77306.56;4954634;28;19993;-66
2023/03/06 07:59:37;;;;;;;;;;;;;;;-142.75;100.00;77296.72;4954263;28;19964;-66
2023/03/06 08:02:02;;;;;;;;;;;;;;;-142.75;100.00;77304.59;4954329;29;19914;-66
2023/03/06 08:04:27;;;;;;;;;;;;;;;-142.75;100.00;77310.50;4954518;28;19915;-66
2023/03/06 08:06:56;;;;;;;;;;;;;;;-142.75;100.00;77310.50;4954896;29;19914;-66
2023/03/06 08:09:21;;;;;;;;;;;;;;;-142.75;100.00;77302.63;4954736;28;20540;-66
2023/03/06 08:11:46;;;;;;;;;;;;;;;-142.75;100.00;77296.72;4954137;29;19921;-66
2023/03/06 08:14:11;;;;;;;;;;;;;;;-142.75;100.00;77298.69;4954166;29;19914;-66
2023/03/06 08:16:37;;;;;;;;;;;;;;;-142.75;100.00;77296.72;4954321;29;19918;-66
2023/03/06 08:19:02;;;;;;;;;;;;;;;-142.75;100.00;77280.97;4953925;28;19968;-66
2023/03/06 08:21:27;;;;;;;;;;;;;;;-142.75;100.00;77267.19;4952479;28;19996;-66
2023/03/06 08:23:53;;;;;;;;;;;;;;;-142.75;100.00;77259.31;4953796;29;19914;-66
2023/03/06 08:26:19;;;;;;;;;;;;;;;-142.75;100.00;77269.16;4954018;29;20396;-66
2023/03/06 08:28:45;;;;;;;;;;;;;;;-142.75;100.00;77267.19;4958127;28;19921;-67
2023/03/06 08:31:12;;;;;;;;;;;;;;;-142.75;100.00;77255.38;4956589;28;19918;-66
2023/03/06 08:33:38;;;;;;;;;;;;;;;-142.75;100.00;77237.66;4955710;28;19914;-67
2023/03/06 08:36:03;;;;;;;;;;;;;;;-142.75;100.00;77243.56;4954028;29;19914;-66
2023/03/06 08:38:28;;;;;;;;;;;;;;;-142.75;100.00;77243.56;4953587;28;20407;-67
2023/03/06 08:40:53;;;;;;;;;;;;;;;-142.75;100.00;77255.38;4953118;29;20276;-66
2023/03/06 08:43:19;;;;;;;;;;;;;;;-142.75;100.00;77247.50;4953753;29;20295;-67
2023/03/06 08:45:44;;;;;;;;;;;;;;;-142.75;100.00;77251.44;4952344;29;20376;-66
2023/03/06 08:48:09;;;;;;;;;;;;;;;-142.75;100.00;77275.06;4953584;28;20470;-66
2023/03/06 08:50:34;;;;;;;;;;;;;;;-142.75;100.00;77241.59;4953622;29;19920;-66
2023/03/06 08:52:59;;;;;;;;;;;;;;;-142.75;100.00;77257.34;4953636;29;19915;-66
2023/03/06 08:55:26;;;;;;;;;;;;;;;-142.75;100.00;77235.69;4953575;28;19921;-67
2023/03/06 08:57:52;;;;;;;;;;;;;;;-142.75;100.00;77259.31;4953390;28;19914;-67
2023/03/06 09:00:17;;;;;;;;;;;;;;;-142.75;100.00;77259.31;4953274;29;19919;-66
2023/03/06 09:02:42;;;;;;;;;;;;;;;-142.75;100.00;77257.34;4953266;29;20394;-67
2023/03/06 09:05:08;;;;;;;;;;;;;;;-142.75;100.00;77275.06;4953503;29;20408;-66
2023/03/06 09:07:33;;;;;;;;;;;;;;;-142.75;100.00;77249.47;4953118;29;19965;-66
2023/03/06 09:09:59;;;;;;;;;;;;;;;-142.75;100.00;77221.91;4954101;28;20077;-66
2023/03/06 09:12:24;;;;;;;;;;;;;;;-142.75;100.00;77223.88;4954213;28;19921;-65
2023/03/06 09:14:50;;;;;;;;;;;;;;;-142.75;100.00;77233.72;4956552;28;20358;-66
2023/03/06 09:17:15;;;;;;;;;;;;;;;-142.75;100.00;77241.59;4956419;28;19922;-67
2023/03/06 09:19:40;;;;;;;;;;;;;;;-142.75;100.00;77284.91;4953233;28;19941;-67
2023/03/06 09:22:05;;;;;;;;;;;;;;;-142.75;100.00;77271.13;4951196;28;19918;-67
2023/03/06 09:24:30;;;;;;;;;;;;;;;-142.75;100.00;77279.00;4952999;28;19968;-67
2023/03/06 09:26:56;;;;;;;;;;;;;;;-142.75;100.00;77280.97;4954066;28;20414;-67
2023/03/06 09:29:21;;;;;;;;;;;;;;;-142.75;100.00;77275.06;4952290;28;19915;-67
2023/03/06 09:31:46;;;;;;;;;;;;;;;-142.75;100.00;77296.72;4948975;29;20384;-67
2023/03/06 09:34:11;;;;;;;;;;;;;;;-142.75;100.00;77306.56;4955115;28;19914;-67
2023/03/06 09:36:37;;;;;;;;;;;;;;;-142.75;100.00;77306.56;4954637;28;19915;-67
2023/03/06 09:39:02;;;;;;;;;;;;;;;-142.75;100.00;77314.44;4955685;28;19914;-67
2023/03/06 09:41:39;;;;;;;;;;;;;;;-142.75;100.00;77310.50;4955231;28;19925;-67
2023/03/06 09:44:04;;;;;;;;;;;;;;;-142.75;100.00;77320.34;4956597;28;19922;-67
2023/03/06 09:46:36;;;;;;;;;;;;;;;-142.75;100.00;77318.38;4953069;28;19914;-67
2023/03/06 09:49:09;;;;;;;;;;;;;;;-142.75;100.00;77312.47;4952911;28;20009;-66
2023/03/06 09:51:40;;;;;;;;;;;;;;;-142.75;100.00;77342.00;4951901;28;19987;-67
2023/03/06 09:54:12;;;;;;;;;;;;;;;-142.75;100.00;77316.41;4961746;28;20418;-67
2023/03/06 09:56:49;;;;;;;;;;;;;;;-142.75;100.00;77316.41;4953371;28;20585;-67
2023/03/06 09:59:22;;;;;;;;;;;;;;;-142.75;100.00;77336.09;4953420;28;19915;-66
2023/03/06 10:01:58;;;;;;;;;;;;;;;-142.75;100.00;77310.50;4955221;28;20380;-67
2023/03/06 10:04:31;;;;;;;;;;;;;;;-142.75;100.00;77263.25;4954407;28;19914;-67
2023/03/06 10:07:00;;;;;;;;;;;;;;;-142.75;100.00;77229.78;4953076;29;20553;-67
2023/03/06 10:09:32;;;;;;;;;;;;;;;-142.75;100.00;77231.75;4956185;28;19914;-67
2023/03/06 10:12:03;;;;;;;;;;;;;;;-142.75;100.00;77212.06;4958729;28;20387;-67
2023/03/06 10:14:34;;;;;;;;;;;;;;;-142.75;100.00;77212.06;4958613;28;19922;-66
2023/03/06 10:17:00;;;;;;;;;;;;;;;-142.75;100.00;77206.16;4952332;28;19937;-67
2023/03/06 10:19:36;;;;;;;;;;;;;;;-142.75;100.00;77192.38;4952906;28;20360;-67
2023/03/06 10:22:05;;;;;;;;;;;;;;;-142.75;100.00;77192.38;4952948;28;19918;-67
2023/03/06 10:24:53;;;;;;;;;;;;;;;-142.75;100.00;77178.59;4953304;29;20301;-66
2023/03/06 10:27:20;;;;;;;;;;;;;;;-142.75;100.00;77164.81;4954572;28;19914;-65
2023/03/06 10:30:12;;;;;;;;;;;;;;;-142.75;100.00;77149.06;4952205;28;20001;-67
2023/03/06 10:32:49;;;;;;;;;;;;;;;-142.75;100.00;77137.25;4952034;28;19914;-67
2023/03/06 10:35:20;;;;;;;;;;;;;;;-142.75;100.00;77133.31;4952147;29;20276;-67
2023/03/06 10:37:46;;;;;;;;;;;;;;;-142.75;100.00;77147.09;4951957;29;19964;-67
2023/03/06 10:40:19;;;;;;;;;;;;;;;-142.75;100.00;77137.25;4951805;28;19966;-67
2023/03/06 10:42:44;;;;;;;;;;;;;;;-142.75;100.00;77143.16;4951624;28;20285;-67
2023/03/06 10:45:14;;;;;;;;;;;;;;;-142.75;100.00;77156.94;4954664;29;19922;-67
2023/03/06 10:47:39;;;;;;;;;;;;;;;-142.75;100.00;77145.13;4955214;29;19914;-67
2023/03/06 10:50:25;;;;;;;;;;;;;;;-142.75;100.00;77133.31;4954024;28;19914;-67
2023/03/06 10:53:03;;;;;;;;;;;;;;;-142.75;100.00;77139.22;4954851;29;20379;-67
2023/03/06 10:55:30;;;;;;;;;;;;;;;-142.75;100.00;77127.41;4955646;28;19937;-67
2023/03/06 10:57:55;;;;;;;;;;;;;;;-142.75;100.00;77117.56;4955427;28;19914;-67
2023/03/06 11:00:32;;;;;;;;;;;;;;;-142.75;100.00;77131.34;4955389;29;20512;-67
2023/03/06 11:03:05;;;;;;;;;;;;;;;-142.75;100.00;77125.44;4955266;29;19914;-67
2023/03/06 11:05:30;;;;;;;;;;;;;;;-142.75;100.00;77084.09;4955168;29;19914;-67
2023/03/06 11:07:58;;;;;;;;;;;;;;;-142.75;100.00;77076.22;4954962;28;20307;-67
2023/03/06 11:10:23;;;;;;;;;;;;;;;-142.75;100.00;77084.09;4955073;28;19986;-67
2023/03/06 11:12:55;;;;;;;;;;;;;;;-142.75;100.00;77048.66;4954915;29;19926;-67
2023/03/06 11:15:23;;;;;;;;;;;;;;;-142.75;100.00;77021.09;4952781;29;19934;-67
2023/03/06 11:17:48;;;;;;;;;;;;;;;-142.75;100.00;77003.38;4954225;29;20480;-67
2023/03/06 11:20:13;;;;;;;;;;;;;;;-142.75;100.00;77011.25;4954261;28;19918;-67
2023/03/06 11:22:39;;;;;;;;;;;;;;;-142.75;100.00;77003.38;4954699;29;19914;-67
2023/03/06 11:25:05;;;;;;;;;;;;;;;-142.75;100.00;77009.28;4954520;29;19977;-67
2023/03/06 11:27:33;;;;;;;;;;;;;;;-142.75;100.00;76995.50;4954871;28;19914;-67
2023/03/06 11:30:01;;;;;;;;;;;;;;;-142.75;100.00;76995.50;4954505;28;19914;-67
2023/03/06 11:32:28;;;;;;;;;;;;;;;-142.75;100.00;76995.50;4955116;28;19921;-67
2023/03/06 11:34:56;;;;;;;;;;;;;;;-142.75;100.00;76981.72;4954704;29;19915;-67
2023/03/06 11:37:30;;;;;;;;;;;;;;;-142.75;100.00;76973.84;4954561;28;20410;-67
2023/03/06 11:40:04;;;;;;;;;;;;;;;-142.75;100.00;76950.22;4954525;28;19919;-67
2023/03/06 11:42:33;;;;;;;;;;;;;;;-142.75;100.00;76948.25;4954455;28;19953;-67
2023/03/06 11:45:01;;;;;;;;;;;;;;;-142.75;100.00;76952.19;4954368;29;19920;-67
2023/03/06 11:47:29;;;;;;;;;;;;;;;-142.75;100.00;76928.56;4954774;29;19921;-67
2023/03/06 11:49:54;;;;;;;;;;;;;;;-142.75;100.00;76910.84;4954282;28;19968;-67
2023/03/06 11:52:26;;;;;;;;;;;;;;;-142.75;100.00;76906.91;4954169;29;19941;-67
2023/03/06 11:54:54;;;;;;;;;;;;;;;-142.75;100.00;76889.19;4953679;28;20401;-67
2023/03/06 11:57:20;;;;;;;;;;;;;;;-142.75;100.00;76889.19;4954348;28;19949;-67
2023/03/06 11:59:51;;;;;;;;;;;;;;;-142.75;100.00;76867.53;4953934;28;19926;-67
2023/03/06 12:02:20;;;;;;;;;;;;;;;-142.75;100.00;76859.66;4954422;29;19942;-67
2023/03/06 12:04:48;;;;;;;;;;;;;;;-142.75;100.00;76873.44;4953680;29;19914;-67
2023/03/06 12:07:16;;;;;;;;;;;;;;;-142.75;100.00;76873.44;4953907;29;19922;-67
2023/03/06 12:09:52;;;;;;;;;;;;;;;-142.75;100.00;76873.44;4953476;28;19918;-67
2023/03/06 12:12:36;;;;;;;;;;;;;;;-142.75;100.00;76877.38;4953473;29;20336;-67
2023/03/06 12:15:16;;;;;;;;;;;;;;;-142.75;100.00;76865.56;4953247;29;20147;-67